Long Barn, California
Current Conditions -  °F | °C
As of 9:35 PM on Monday 26 Jan 2015 (Local Time) from KO22 Reporting Station
Clear Clear  
Wind Chill: 48°   Ceiling: Unl
Heat Index: 48°   Visibility: 10mi
Dew Point: 36°   Wind: 0mph
Humidity: 62%   Direction: NA
Pressure: 30.01"   Gusts: NA
Location:  38.09°N, 120.13°W
Report Text: KO22 270535Z AUTO 00000KT 10SM CLR 09/02 A3001 RMK AO1
Loading
Personal Weather Stations






























Interactive Weather Map New forecast layout! Learn more

10-Day Weather Forecast

Advertisements
Track Severe Weather on mobile